TimeCST,TemperatureF,Dew PointF,Humidity,Sea Level PressureIn,VisibilityMPH,Wind Direction,Wind SpeedMPH,Gust SpeedMPH,PrecipitationIn,Events,Conditions,WindDirDegrees,DateUTC
12:53 AM,46.0,34.0,63,29.92,10.0,West,6.9,-,N/A,,Clear,260,2013-02-27 06:53:00
1:53 AM,44.1,34.0,68,29.91,10.0,West,5.8,-,N/A,,Clear,280,2013-02-27 07:53:00
2:53 AM,43.0,34.0,71,29.92,10.0,WSW,5.8,-,N/A,,Clear,250,2013-02-27 08:53:00
3:53 AM,43.0,34.0,71,29.92,10.0,WSW,4.6,-,N/A,,Clear,250,2013-02-27 09:53:00
4:53 AM,42.1,34.0,73,29.94,10.0,WSW,5.8,-,N/A,,Clear,250,2013-02-27 10:53:00
5:53 AM,42.1,34.0,73,29.94,10.0,Calm,Calm,-,N/A,,Clear,0,2013-02-27 11:53:00
6:53 AM,39.0,34.0,82,29.96,10.0,SSW,4.6,-,N/A,,Clear,200,2013-02-27 12:53:00
7:53 AM,44.1,36.0,73,29.97,10.0,SW,4.6,-,N/A,,Clear,220,2013-02-27 13:53:00
8:53 AM,50.0,37.0,61,29.99,10.0,WSW,5.8,-,N/A,,Clear,240,2013-02-27 14:53:00
9:53 AM,53.1,36.0,52,29.99,10.0,West,8.1,-,N/A,,Clear,270,2013-02-27 15:53:00
10:53 AM,55.9,37.0,49,29.99,10.0,SW,6.9,-,N/A,,Clear,230,2013-02-27 16:53:00
11:53 AM,60.1,37.9,44,29.97,10.0,WSW,8.1,-,N/A,,Clear,250,2013-02-27 17:53:00
12:53 PM,61.0,37.0,41,29.94,10.0,WSW,10.4,18.4,N/A,,Clear,240,2013-02-27 18:53:00
1:53 PM,63.0,37.0,38,29.92,10.0,WSW,9.2,24.2,N/A,,Partly Cloudy,250,2013-02-27 19:53:00
2:53 PM,63.0,36.0,37,29.92,10.0,West,12.7,18.4,N/A,,Clear,270,2013-02-27 20:53:00
3:53 PM,63.0,35.1,35,29.92,10.0,West,10.4,-,N/A,,Clear,260,2013-02-27 21:53:00
4:53 PM,61.0,34.0,36,29.91,10.0,WSW,8.1,-,N/A,,Clear,250,2013-02-27 22:53:00
5:53 PM,57.9,36.0,44,29.91,10.0,WSW,4.6,-,N/A,,Clear,250,2013-02-27 23:53:00
6:53 PM,55.0,36.0,49,29.94,10.0,West,5.8,-,N/A,,Clear,260,2013-02-28 00:53:00
7:53 PM,53.1,37.0,55,29.94,10.0,SW,4.6,-,N/A,,Overcast,230,2013-02-28 01:53:00
8:53 PM,51.1,36.0,56,29.94,10.0,SW,4.6,-,N/A,,Clear,220,2013-02-28 02:53:00
9:53 PM,51.1,36.0,56,29.96,10.0,West,6.9,-,N/A,,Clear,280,2013-02-28 03:53:00
10:53 PM,50.0,36.0,59,29.96,10.0,West,6.9,-,N/A,,Clear,280,2013-02-28 04:53:00
11:53 PM,48.2,35.6,62,29.96,10.0,West,6.9,-,N/A,,Clear,270,2013-02-28 05:53:00